createdAt,value
2023-01-13T01:06:28.545Z,101697.04
2023-01-13T01:09:16.351Z,101697.96
2023-01-13T01:12:04.125Z,101699.64
2023-01-13T01:14:51.571Z,101700.35
2023-01-13T01:17:39.037Z,101694.52
2023-01-13T01:20:26.611Z,101691.09
2023-01-13T01:23:14.080Z,101684.73
2023-01-13T01:26:02.532Z,101678.86
2023-01-13T01:28:50.116Z,101676.18
2023-01-13T01:31:37.659Z,101674.67
2023-01-13T01:34:25.112Z,101667.66
2023-01-13T01:37:12.573Z,101666.52
2023-01-13T01:40:00.037Z,101663.17
2023-01-13T01:43:06.171Z,101663.77
2023-01-13T01:45:53.649Z,101664.07
2023-01-13T01:48:41.351Z,101667.15
2023-01-13T01:51:29.908Z,101666.96
2023-01-13T01:54:27.752Z,101665.91
2023-01-13T01:57:18.487Z,101661.44
2023-01-13T02:00:06.547Z,101656.03
2023-01-13T02:02:59.299Z,101654.55
2023-01-13T02:05:46.765Z,101643.33
2023-01-13T02:08:34.922Z,101643.80
2023-01-13T02:11:49.270Z,101643.92
2023-01-13T02:14:36.737Z,101642.14
2023-01-13T02:18:12.405Z,101648.79
2023-01-13T02:21:15.125Z,101651.41
2023-01-13T02:24:33.627Z,101653.30
2023-01-13T02:27:53.001Z,101661.48
2023-01-13T02:31:15.427Z,101659.55
2023-01-13T02:34:09.513Z,101656.73
2023-01-13T02:37:00.037Z,101650.48
2023-01-13T02:40:01.791Z,101642.51
2023-01-13T02:43:30.892Z,101641.71
2023-01-13T02:46:23.408Z,101642.17
2023-01-13T02:49:12.607Z,101639.94
2023-01-13T02:52:10.424Z,101642.67
2023-01-13T02:55:01.670Z,101653.00
2023-01-13T02:57:49.174Z,101658.37
2023-01-13T03:00:36.892Z,101661.52
2023-01-13T03:03:24.665Z,101659.30
2023-01-13T03:06:30.760Z,101655.63
2023-01-13T03:09:40.050Z,101653.77
2023-01-13T03:12:58.661Z,101651.02
2023-01-13T03:15:49.118Z,101654.39
2023-01-13T03:18:46.935Z,101651.11
2023-01-13T03:21:37.452Z,101655.30
2023-01-13T03:24:39.929Z,101651.73
2023-01-13T03:27:30.584Z,101656.05
2023-01-13T03:30:29.387Z,101659.63
2023-01-13T03:33:18.253Z,101659.59
2023-01-13T03:36:08.327Z,101656.77
2023-01-13T03:39:05.380Z,101648.48
2023-01-13T03:41:57.264Z,101645.92
2023-01-13T03:44:52.502Z,101641.55
2023-01-13T03:47:41.469Z,101640.73
2023-01-13T03:50:31.627Z,101646.16
2023-01-13T03:53:22.226Z,101643.67
2023-01-13T03:56:39.877Z,101641.11
2023-01-13T07:10:14.440Z,101693.00
2023-01-13T07:13:20.910Z,101694.90
2023-01-13T07:16:09.002Z,101695.94
2023-01-13T07:18:56.456Z,101697.59
2023-01-13T07:21:43.999Z,101696.90
2023-01-13T07:24:31.469Z,101695.84
2023-01-13T07:27:18.971Z,101699.61
2023-01-13T07:30:07.579Z,101707.98
2023-01-13T07:32:55.503Z,101708.80
2023-01-13T07:35:42.999Z,101708.39
2023-01-13T07:38:30.648Z,101707.61
2023-01-13T07:41:36.631Z,101709.08
2023-01-13T07:44:24.046Z,101706.65
2023-01-13T07:47:11.543Z,101712.95
2023-01-13T07:49:59.029Z,101711.05
2023-01-13T07:52:46.515Z,101714.51
2023-01-13T07:55:34.032Z,101709.85
2023-01-13T07:58:21.442Z,101713.13
2023-01-13T08:01:10.489Z,101716.98
2023-01-13T08:03:58.938Z,101712.88
2023-01-13T08:06:46.607Z,101712.76
2023-01-13T08:09:34.175Z,101709.10
2023-01-13T08:12:40.277Z,101708.27
2023-01-13T08:15:40.692Z,101696.48
2023-01-13T08:18:28.159Z,101701.40
2023-01-13T08:21:15.731Z,101701.70
2023-01-13T08:24:03.170Z,101704.55
2023-01-13T08:26:50.546Z,101702.45
2023-01-13T08:29:38.009Z,101701.18
2023-01-13T08:32:25.413Z,101705.65
2023-01-13T08:35:13.302Z,101707.67
2023-01-13T08:38:00.739Z,101710.56
2023-01-13T08:40:48.156Z,101705.43
2023-01-13T08:43:35.647Z,101701.00
2023-01-13T08:46:23.127Z,101700.20
2023-01-13T08:49:10.583Z,101697.08
2023-01-13T08:51:58.062Z,101694.30
2023-01-13T08:54:45.600Z,101683.41
2023-01-13T08:57:33.171Z,101683.77
2023-01-13T09:00:20.900Z,101679.06
2023-01-13T09:03:08.408Z,101672.26
2023-01-13T09:05:55.853Z,101668.59
2023-01-13T09:08:43.470Z,101660.52
2023-01-13T09:11:53.289Z,101660.55
2023-01-13T09:14:40.991Z,101658.61
2023-01-13T09:17:28.472Z,101652.68
2023-01-13T09:20:16.178Z,101646.45
2023-01-13T09:23:04.226Z,101650.73
2023-01-13T09:25:52.697Z,101644.26
2023-01-13T09:28:40.158Z,101648.73
2023-01-13T09:31:28.689Z,101651.09
2023-01-13T09:34:36.767Z,101647.02
2023-01-13T09:37:24.199Z,101641.10
2023-01-13T09:40:22.720Z,101638.37
2023-01-13T09:43:48.929Z,101638.89
2023-01-13T09:46:47.280Z,101634.48
2023-01-13T09:49:37.519Z,101626.96
2023-01-13T09:52:27.020Z,101624.58
2023-01-13T09:55:17.078Z,101623.89
2023-01-13T09:58:13.191Z,101623.02
2023-01-13T13:07:30.961Z,101582.10
2023-01-13T13:10:24.311Z,101584.41
2023-01-13T13:13:42.659Z,101589.57
2023-01-13T13:16:30.358Z,101591.34
2023-01-13T13:19:18.004Z,101593.41
2023-01-13T13:22:16.756Z,101589.54
2023-01-13T13:25:04.202Z,101594.10
2023-01-13T13:28:01.724Z,101600.67
2023-01-13T13:30:53.814Z,101600.40
2023-01-13T13:33:50.454Z,101598.28
2023-01-13T13:36:46.776Z,101600.27
2023-01-13T13:39:52.718Z,101602.43
2023-01-13T13:43:03.339Z,101603.42
2023-01-13T13:46:10.059Z,101601.64
2023-01-13T13:48:58.605Z,101600.59
2023-01-13T13:51:52.936Z,101605.73
2023-01-13T13:54:42.229Z,101609.41
2023-01-13T13:57:39.971Z,101610.11
2023-01-13T14:00:32.460Z,101610.50
2023-01-13T14:03:37.857Z,101609.86
2023-01-13T14:06:27.237Z,101609.78
2023-01-13T14:09:18.119Z,101609.49
2023-01-13T14:12:08.902Z,101605.84
2023-01-13T14:14:57.552Z,101609.92
2023-01-13T14:17:44.971Z,101609.38
2023-01-13T14:20:34.487Z,101605.34
2023-01-13T14:23:26.239Z,101601.91
2023-01-13T14:26:15.017Z,101604.31
2023-01-13T14:29:02.602Z,101606.91
2023-01-13T14:31:50.577Z,101603.80
2023-01-13T14:34:38.036Z,101602.52
2023-01-13T14:37:25.453Z,101601.77
2023-01-13T14:40:39.483Z,101603.23
2023-01-13T14:43:27.447Z,101600.00
2023-01-13T14:46:15.218Z,101597.06
2023-01-13T14:49:02.888Z,101593.95
2023-01-13T14:51:50.867Z,101600.17
2023-01-13T14:54:41.388Z,101603.58
2023-01-13T14:57:32.730Z,101607.69
2023-01-13T15:00:24.899Z,101606.55
2023-01-13T15:03:16.517Z,101603.73
2023-01-13T15:06:22.990Z,101601.20
2023-01-13T15:09:13.590Z,101595.09
2023-01-13T15:12:12.183Z,101596.16
2023-01-13T15:14:59.611Z,101594.00
2023-01-13T15:17:47.313Z,101597.06
2023-01-13T15:20:34.737Z,101591.58
2023-01-13T15:23:22.317Z,101594.05
2023-01-13T15:26:27.215Z,101596.21
2023-01-13T15:29:17.503Z,101603.72
2023-01-13T15:32:05.306Z,101602.02
2023-01-13T15:34:53.679Z,101603.33
2023-01-13T15:37:41.742Z,101604.70
2023-01-13T15:40:32.750Z,101603.89
2023-01-13T15:43:40.382Z,101605.67
2023-01-13T15:46:40.061Z,101597.28
2023-01-13T15:49:37.037Z,101598.58
2023-01-13T15:52:25.828Z,101602.88
2023-01-13T15:55:13.320Z,101597.53
2023-01-13T15:58:02.008Z,101602.23
2023-01-13T19:07:36.664Z,101596.92
2023-01-13T19:10:24.220Z,101601.41
2023-01-13T19:13:11.840Z,101602.16
2023-01-13T19:16:04.661Z,101606.98
2023-01-13T19:18:52.264Z,101609.08
2023-01-13T19:21:39.778Z,101606.77
2023-01-13T19:24:27.266Z,101595.61
2023-01-13T19:27:15.482Z,101595.30
2023-01-13T19:30:03.629Z,101588.79
2023-01-13T19:32:51.859Z,101588.66
2023-01-13T19:35:39.346Z,101592.81
2023-01-13T19:38:27.469Z,101595.17
2023-01-13T19:41:34.900Z,101596.43
2023-01-13T19:44:41.024Z,101596.27
2023-01-13T19:47:28.734Z,101599.83
2023-01-13T19:50:16.253Z,101593.41
2023-01-13T19:53:03.762Z,101588.16
2023-01-13T19:55:51.306Z,101586.58
2023-01-13T19:58:38.705Z,101582.27
2023-01-13T20:01:31.839Z,101577.89
2023-01-13T20:04:27.144Z,101583.45
2023-01-13T20:07:14.721Z,101587.25
2023-01-13T20:10:02.535Z,101594.99
2023-01-13T20:12:50.096Z,101601.09
2023-01-13T20:15:38.462Z,101598.05
2023-01-13T20:18:25.888Z,101596.47
2023-01-13T20:21:13.263Z,101602.91
2023-01-13T20:24:00.772Z,101599.52
2023-01-13T20:26:48.330Z,101597.18
2023-01-13T20:29:35.920Z,101588.02
2023-01-13T20:32:23.785Z,101586.20
2023-01-13T20:35:12.610Z,101590.17
2023-01-13T20:38:00.039Z,101590.44
2023-01-13T20:40:47.559Z,101584.73
2023-01-13T20:43:35.091Z,101585.75
2023-01-13T20:46:23.063Z,101587.80
2023-01-13T20:49:10.817Z,101582.90
2023-01-13T20:51:58.714Z,101584.09
2023-01-13T20:54:46.222Z,101580.48
2023-01-13T20:57:33.866Z,101581.52
2023-01-13T21:00:21.620Z,101586.11
2023-01-13T21:03:09.096Z,101582.69
2023-01-13T21:05:59.587Z,101575.48
2023-01-13T21:08:47.598Z,101573.39
2023-01-13T21:11:53.583Z,101575.56
2023-01-13T21:14:59.788Z,101577.77
2023-01-13T21:18:06.985Z,101582.77
2023-01-13T21:21:11.396Z,101584.02
2023-01-13T21:23:58.864Z,101580.81
2023-01-13T21:26:49.285Z,101578.94
2023-01-13T21:29:36.781Z,101578.37
2023-01-13T21:32:24.228Z,101577.81
2023-01-13T21:35:12.126Z,101581.67
2023-01-13T21:37:59.779Z,101577.61
2023-01-13T21:40:56.365Z,101581.09
2023-01-13T21:44:02.427Z,101575.04
2023-01-13T21:47:08.370Z,101579.52
2023-01-13T21:49:55.775Z,101572.29
2023-01-13T21:52:43.213Z,101576.41
2023-01-13T21:55:31.334Z,101570.95
